Archival Weather

Dewar Lakes

Dewar Lakes, Canada (CWUW)

Report from: Friday, May 26, 2023 3:00 AM EDT
Current time: Monday, July 22, 2024 6:08 AM EDT

Current weather – Weather history – Daily summaries
Weather forecast

Present weatherSM
Temperature-17.0°C (1.4°F)
Wind chill-29.2°C (-20.5°F)
Dew point-19.0°C (-2.2°F)
Winds 18 kts (9.3 m/s, 20.7 mph) North-Northwest (330°)
Wind gusts 24 kts (12.3 m/s, 27.6 mph)
Visibility0 ft. (0 m)
Altimeter29.51 in.Hg (999 mB)
Relative humidity84 %
Density altitude-3,557 ft. (-1,084 m)
Remarks Fully automated report
Flight conditions Low Instrument Meteorological Conditions
Raw dataCWUW 260700Z AUTO 33018G24KT ////SM ////// M17/M19 A2951
An error has occurred. This application may no longer respond until reloaded. Reload 🗙